San Bernardino, California
Current Conditions -  °F | °C
As of 5:53 PM on Thursday 20 Nov 2014 (Local Time) from KRAL Reporting Station
Clear Clear  
Wind Chill: 62°   Ceiling: Unl
Heat Index: 62°   Visibility: 10mi
Dew Point: 54°   Wind: 8mph
Humidity: 75%   Direction: 270°W
Pressure: 30.01"   Gusts: NA
Location:  34.11°N, 117.29°W
Report Text: KRAL 210153Z 27007KT 10SM CLR 17/12 A3001 RMK AO2 SLP153 T01670122
Loading
Personal Weather Stations






























Interactive Weather Map New forecast layout! Learn more

10-Day Weather Forecast

Advertisements
Track Severe Weather on mobile